< < Back
Terminal Aerodrome Forecast


Current Version              Previous Versions:   1  2  3  4  5  6  7  8  9  

Terminal Aerodrome Forecast

301
FTUS44 KMOB 231137
TAFMOB
TAF
KMOB 231137Z 2312/2412 02003KT P6SM SCT250
     FM231700 15006KT P6SM VCTS SCT030CB
     FM240000 18004KT P6SM SCT250=

Latest METAR

733
SAUS80 KWBC 240600 RRA
MTRMOB
METAR KMOB 240556Z AUTO 14003KT 10SM CLR 26/24 A2999 RMK AO2 SLP153
T02560239 10300 20256 403330228 58002


USA.gov is the U.S. government's official web portal to all federal, state and local government web resources and services.